createdAt,value
2022-10-23T00:00:53.343Z,64.13
2022-10-23T00:03:38.423Z,64.25
2022-10-23T00:06:11.485Z,64.43
2022-10-23T00:08:43.372Z,64.43
2022-10-23T00:11:17.984Z,64.72
2022-10-23T00:13:50.655Z,64.47
2022-10-23T00:16:22.451Z,64.36
2022-10-23T00:18:54.221Z,64.36
2022-10-23T00:21:26.794Z,64.44
2022-10-23T00:23:58.661Z,64.32
2022-10-23T00:26:30.426Z,64.25
2022-10-23T00:29:02.124Z,64.24
2022-10-23T00:31:33.846Z,64.36
2022-10-23T00:34:08.489Z,63.95
2022-10-23T00:36:40.889Z,63.87
2022-10-23T00:39:12.567Z,63.72
2022-10-23T00:41:44.239Z,63.59
2022-10-23T00:44:46.409Z,63.54
2022-10-23T00:47:18.930Z,63.43
2022-10-23T00:49:51.135Z,63.30
2022-10-23T00:52:22.810Z,63.55
2022-10-23T00:54:54.571Z,63.42
2022-10-23T00:57:26.375Z,63.38
2022-10-23T00:59:58.062Z,63.05
2022-10-23T01:02:29.834Z,63.11
2022-10-23T01:05:01.660Z,63.38
2022-10-23T01:07:40.883Z,63.05
2022-10-23T01:10:21.902Z,62.96
2022-10-23T01:13:01.834Z,63.09
2022-10-23T01:15:38.703Z,63.10
2022-10-23T01:18:18.324Z,63.02
2022-10-23T01:21:00.687Z,63.01
2022-10-23T01:24:01.909Z,63.06
2022-10-23T01:26:45.367Z,63.13
2022-10-23T01:29:26.763Z,62.93
2022-10-23T01:32:04.193Z,62.76
2022-10-23T01:34:48.822Z,62.79
2022-10-23T01:37:30.677Z,62.84
2022-10-23T01:40:18.906Z,62.81
2022-10-23T01:42:56.078Z,62.92
2022-10-23T01:45:37.717Z,63.02
2022-10-23T01:48:13.748Z,63.20
2022-10-23T01:50:47.663Z,63.34
2022-10-23T01:53:20.493Z,63.42
2022-10-23T01:55:55.801Z,63.15
2022-10-23T01:58:32.557Z,63.02
2022-10-23T02:01:07.631Z,63.14
2022-10-23T02:03:45.094Z,63.28
2022-10-23T02:06:17.060Z,63.23
2022-10-23T02:08:49.513Z,63.37
2022-10-23T02:11:22.998Z,63.32
2022-10-23T02:14:00.904Z,63.20
2022-10-23T02:16:37.179Z,62.96
2022-10-23T02:19:18.916Z,62.87
2022-10-23T02:21:57.993Z,62.82
2022-10-23T02:24:36.814Z,62.63
2022-10-23T02:27:16.048Z,62.62
2022-10-23T02:29:51.228Z,62.59
2022-10-23T02:32:27.827Z,62.57
2022-10-23T02:34:59.539Z,62.71
2022-10-23T02:37:31.326Z,62.61
2022-10-23T02:40:05.031Z,62.40
2022-10-23T02:42:50.878Z,62.42
2022-10-23T02:45:30.833Z,62.64
2022-10-23T02:48:11.383Z,62.56
2022-10-23T02:50:50.347Z,62.67
2022-10-23T02:53:31.254Z,62.56
2022-10-23T02:56:10.838Z,62.57
2022-10-23T02:58:49.663Z,62.41
2022-10-23T03:01:27.618Z,62.22
2022-10-23T03:04:02.114Z,62.18
2022-10-23T03:06:35.723Z,62.19
2022-10-23T03:09:09.499Z,62.21
2022-10-23T03:11:41.217Z,62.29
2022-10-23T03:14:14.651Z,62.37
2022-10-23T03:16:46.351Z,62.58
2022-10-23T03:19:18.399Z,62.83
2022-10-23T03:21:50.625Z,62.99
2022-10-23T03:24:22.626Z,63.15
2022-10-23T03:26:54.507Z,63.10
2022-10-23T03:29:33.437Z,63.20
2022-10-23T03:32:05.747Z,63.09
2022-10-23T03:34:37.528Z,63.13
2022-10-23T03:37:09.651Z,63.04
2022-10-23T03:39:41.533Z,63.06
2022-10-23T03:42:13.271Z,62.99
2022-10-23T03:44:45.080Z,62.85
2022-10-23T03:47:16.841Z,62.53
2022-10-23T03:49:48.520Z,62.67
2022-10-23T03:52:20.762Z,62.71
2022-10-23T03:54:55.592Z,62.66
2022-10-23T03:57:27.378Z,62.58
2022-10-23T03:59:59.104Z,62.65
2022-10-23T04:02:34.280Z,62.64
2022-10-23T04:05:06.745Z,62.71
2022-10-23T04:07:39.285Z,62.68
2022-10-23T04:10:12.175Z,62.55
2022-10-23T04:12:44.492Z,62.48
2022-10-23T04:15:17.247Z,62.55
2022-10-23T04:17:50.855Z,62.57
2022-10-23T04:20:24.283Z,62.50
2022-10-23T04:22:55.927Z,62.61
2022-10-23T04:25:27.957Z,62.85
2022-10-23T04:27:59.639Z,63.12
2022-10-23T04:30:31.473Z,63.09
2022-10-23T04:33:03.171Z,63.24
2022-10-23T04:35:34.849Z,63.22
2022-10-23T04:38:06.534Z,63.06
2022-10-23T04:40:38.340Z,63.13
2022-10-23T04:43:10.133Z,62.98
2022-10-23T04:45:43.824Z,62.89
2022-10-23T04:48:15.816Z,63.04
2022-10-23T04:51:08.662Z,62.93
2022-10-23T04:53:55.538Z,62.99
2022-10-23T04:56:34.838Z,62.75
2022-10-23T04:59:11.021Z,62.76
2022-10-23T05:01:44.350Z,62.79
2022-10-23T05:04:16.061Z,62.74
2022-10-23T05:10:07.164Z,62.60
2022-10-23T05:12:53.182Z,62.48
2022-10-23T05:15:27.020Z,62.52
2022-10-23T05:18:04.952Z,62.43
2022-10-23T05:20:39.050Z,62.28
2022-10-23T05:23:15.832Z,62.34
2022-10-23T05:25:56.523Z,62.28
2022-10-23T05:28:28.210Z,62.31
2022-10-23T05:31:01.996Z,62.17
2022-10-23T05:33:35.978Z,62.06
2022-10-23T05:36:09.562Z,61.93
2022-10-23T05:38:41.702Z,61.79
2022-10-23T05:41:20.310Z,61.73
2022-10-23T05:43:52.515Z,61.57
2022-10-23T05:46:44.485Z,61.56
2022-10-23T05:49:26.610Z,61.66
2022-10-23T05:52:16.932Z,61.70
2022-10-23T05:55:10.117Z,61.65
2022-10-23T05:57:55.595Z,61.74
2022-10-23T06:00:44.844Z,61.66
2022-10-23T06:03:34.543Z,61.56
2022-10-23T06:06:10.816Z,61.17
2022-10-23T06:08:49.952Z,60.87
2022-10-23T06:11:22.925Z,60.84
2022-10-23T06:14:01.804Z,61.05
2022-10-23T06:16:33.800Z,61.23
2022-10-23T06:19:06.172Z,60.96
2022-10-23T06:21:41.119Z,60.76
2022-10-23T06:24:13.841Z,60.40
2022-10-23T06:26:59.890Z,60.30
2022-10-23T06:29:52.036Z,60.66
2022-10-23T06:32:24.685Z,60.62
2022-10-23T06:35:08.120Z,60.45
2022-10-23T06:37:40.037Z,60.35
2022-10-23T06:40:18.028Z,60.24
2022-10-23T06:43:04.765Z,60.09
2022-10-23T06:45:46.566Z,59.97
2022-10-23T06:48:18.908Z,59.71
2022-10-23T06:51:18.278Z,59.72
2022-10-23T06:53:50.371Z,58.59
2022-10-23T06:56:51.457Z,57.58
2022-10-23T06:59:26.908Z,59.32
2022-10-23T07:01:58.754Z,63.69
2022-10-23T07:04:31.054Z,65.71
2022-10-23T07:07:02.941Z,64.05
2022-10-23T07:09:42.111Z,62.97
2022-10-23T07:12:19.973Z,62.66
2022-10-23T07:14:55.965Z,62.35
2022-10-23T07:17:29.403Z,62.08
2022-10-23T07:20:01.054Z,61.49
2022-10-23T07:22:33.298Z,61.06
2022-10-23T07:25:18.213Z,60.87
2022-10-23T07:27:50.418Z,60.74
2022-10-23T07:30:24.363Z,60.37
2022-10-23T07:32:58.830Z,60.23
2022-10-23T07:35:46.417Z,60.12
2022-10-23T07:38:24.022Z,59.62
2022-10-23T07:41:00.240Z,58.55
2022-10-23T07:46:10.474Z,60.38
2022-10-23T07:48:44.148Z,63.75
2022-10-23T07:51:17.464Z,65.27
2022-10-23T07:53:51.085Z,63.73
2022-10-23T07:56:43.236Z,62.41
2022-10-23T07:59:19.473Z,60.99
2022-10-23T08:01:56.758Z,60.30
2022-10-23T08:04:36.022Z,58.30
2022-10-23T08:07:15.269Z,57.03
2022-10-23T08:09:48.118Z,59.65
2022-10-23T08:12:19.943Z,61.12
2022-10-23T08:14:52.278Z,63.08
2022-10-23T08:17:26.329Z,64.59
2022-10-23T08:20:21.351Z,63.89
2022-10-23T08:22:53.816Z,61.50
2022-10-23T08:25:28.511Z,59.06
2022-10-23T08:28:04.184Z,58.38
2022-10-23T08:30:40.126Z,60.21
2022-10-23T08:33:12.041Z,62.59
2022-10-23T08:35:44.025Z,64.94
2022-10-23T08:38:16.322Z,63.77
2022-10-23T08:40:50.529Z,62.21
2022-10-23T08:43:52.026Z,60.93
2022-10-23T08:46:39.489Z,58.17
2022-10-23T08:49:41.515Z,57.45
2022-10-23T08:52:21.595Z,58.94
2022-10-23T08:55:03.465Z,60.35
2022-10-23T08:57:43.919Z,63.27
2022-10-23T09:00:18.714Z,64.25
2022-10-23T09:02:53.485Z,61.98
2022-10-23T09:05:32.367Z,59.98
2022-10-23T09:08:23.256Z,57.75
2022-10-23T09:11:03.334Z,57.49
2022-10-23T09:13:56.635Z,59.25
2022-10-23T09:16:41.740Z,60.98
2022-10-23T09:19:16.595Z,63.80
2022-10-23T09:21:51.008Z,63.72
2022-10-23T09:24:25.373Z,61.33
2022-10-23T09:26:57.238Z,58.69
2022-10-23T09:29:32.116Z,57.57
2022-10-23T09:32:07.123Z,58.61
2022-10-23T09:34:39.620Z,60.06
2022-10-23T09:37:26.408Z,60.75
2022-10-23T09:40:19.220Z,64.03
2022-10-23T09:42:57.136Z,63.70
2022-10-23T09:45:32.445Z,61.62
2022-10-23T09:48:14.934Z,58.04
2022-10-23T09:50:51.230Z,56.60
2022-10-23T09:53:31.925Z,57.61
2022-10-23T09:56:07.946Z,59.33
2022-10-23T09:58:44.550Z,60.54
2022-10-23T10:01:27.623Z,61.81
2022-10-23T10:04:03.880Z,64.15
2022-10-23T10:06:36.442Z,62.89
2022-10-23T10:09:13.241Z,61.10
2022-10-23T10:11:50.498Z,57.94
2022-10-23T10:14:45.061Z,57.19
2022-10-23T10:17:29.030Z,58.44
2022-10-23T10:20:16.367Z,59.94
2022-10-23T10:22:54.661Z,60.99
2022-10-23T10:25:33.406Z,62.95
2022-10-23T10:28:24.749Z,62.64
2022-10-23T10:31:07.356Z,60.86
2022-10-23T10:33:49.023Z,57.35
2022-10-23T10:36:40.255Z,56.41
2022-10-23T10:39:22.849Z,55.94
2022-10-23T10:42:08.236Z,57.45
2022-10-23T10:44:54.580Z,58.25
2022-10-23T10:47:33.825Z,58.88
2022-10-23T10:50:16.925Z,59.45
2022-10-23T10:53:08.684Z,59.43
2022-10-23T10:55:44.024Z,59.73
2022-10-23T10:58:21.492Z,60.30
2022-10-23T11:00:57.105Z,59.94
2022-10-23T11:03:40.072Z,60.09
2022-10-23T11:06:17.493Z,60.50
2022-10-23T11:08:57.222Z,60.86
2022-10-23T11:11:36.024Z,61.12
2022-10-23T11:14:09.485Z,60.70
2022-10-23T11:16:46.532Z,60.94
2022-10-23T11:19:25.716Z,60.46
2022-10-23T11:22:03.854Z,60.71
2022-10-23T11:24:52.433Z,60.61
2022-10-23T11:27:38.713Z,61.01
2022-10-23T11:30:24.178Z,61.15
2022-10-23T11:33:15.903Z,61.53
2022-10-23T11:35:55.903Z,61.84
2022-10-23T11:38:31.060Z,61.92
2022-10-23T11:41:06.510Z,63.96
2022-10-23T11:43:51.311Z,65.50
2022-10-23T11:46:40.065Z,62.99
2022-10-23T11:49:24.214Z,58.94
2022-10-23T11:52:05.115Z,57.02
2022-10-23T11:54:37.263Z,57.68
2022-10-23T11:57:14.796Z,58.21
2022-10-23T11:59:56.068Z,58.47
2022-10-23T12:02:36.890Z,59.67
2022-10-23T12:05:26.469Z,59.59
2022-10-23T12:08:01.078Z,60.28
2022-10-23T12:10:35.510Z,60.99
2022-10-23T12:13:22.128Z,61.14
2022-10-23T12:16:00.106Z,61.43
2022-10-23T12:18:33.172Z,61.19
2022-10-23T12:21:06.368Z,60.94
2022-10-23T12:23:48.462Z,60.97
2022-10-23T12:26:45.855Z,60.70
2022-10-23T12:29:29.051Z,60.79
2022-10-23T12:32:10.016Z,61.39
2022-10-23T12:34:54.553Z,61.83
2022-10-23T12:38:08.585Z,64.29
2022-10-23T12:40:40.886Z,65.11
2022-10-23T12:43:27.198Z,62.38
2022-10-23T12:46:04.119Z,59.13
2022-10-23T12:48:36.373Z,57.34
2022-10-23T12:51:08.406Z,57.32
2022-10-23T12:53:40.359Z,58.15
2022-10-23T12:56:17.075Z,58.31
2022-10-23T12:58:53.206Z,58.98
2022-10-23T13:01:30.498Z,59.30
2022-10-23T13:04:13.203Z,59.78
2022-10-23T13:06:45.630Z,59.70
2022-10-23T13:09:24.496Z,59.89
2022-10-23T13:12:28.550Z,60.03
2022-10-23T13:15:04.131Z,59.77
2022-10-23T13:17:41.968Z,60.10
2022-10-23T13:20:23.782Z,60.24
2022-10-23T13:23:01.289Z,59.89
2022-10-23T13:25:33.203Z,60.35
2022-10-23T13:28:25.110Z,60.26
2022-10-23T13:31:07.389Z,60.65
2022-10-23T13:33:41.567Z,60.53
2022-10-23T13:36:27.489Z,60.66
2022-10-23T13:39:13.955Z,60.85
2022-10-23T13:41:47.735Z,60.50
2022-10-23T13:44:24.234Z,60.77
2022-10-23T13:46:57.185Z,60.82
2022-10-23T13:49:28.899Z,60.84
2022-10-23T13:52:00.656Z,60.80
2022-10-23T13:54:32.358Z,60.97
2022-10-23T13:57:04.252Z,61.05
2022-10-23T13:59:36.163Z,60.61
2022-10-23T14:02:19.986Z,60.99
2022-10-23T14:04:52.727Z,61.11
2022-10-23T14:07:24.432Z,61.28
2022-10-23T14:09:56.116Z,61.44
2022-10-23T14:12:27.892Z,61.57
2022-10-23T14:14:59.590Z,61.87
2022-10-23T14:17:31.306Z,61.85
2022-10-23T14:20:05.868Z,61.74
2022-10-23T14:22:38.300Z,61.93
2022-10-23T14:25:10.837Z,62.18
2022-10-23T14:27:42.638Z,63.24
2022-10-23T14:30:15.448Z,64.34
2022-10-23T14:32:47.571Z,65.89
2022-10-23T14:35:20.836Z,62.99
2022-10-23T14:37:52.530Z,61.59
2022-10-23T14:40:24.412Z,59.65
2022-10-23T14:42:56.094Z,58.73
2022-10-23T14:45:29.866Z,59.01
2022-10-23T14:48:02.638Z,59.82
2022-10-23T14:50:43.188Z,60.53
2022-10-23T14:53:15.642Z,61.20
2022-10-23T14:55:47.304Z,63.06
2022-10-23T14:58:18.990Z,65.46
2022-10-23T15:01:00.152Z,65.06
2022-10-23T15:03:32.854Z,63.83
2022-10-23T15:06:04.889Z,62.56
2022-10-23T15:08:37.027Z,62.05
2022-10-23T15:11:12.534Z,61.05
2022-10-23T15:13:44.741Z,59.25
2022-10-23T15:16:16.655Z,58.07
2022-10-23T15:18:48.308Z,58.93
2022-10-23T15:21:20.166Z,60.00
2022-10-23T15:23:53.286Z,60.96
2022-10-23T15:26:25.664Z,63.93
2022-10-23T15:28:59.241Z,65.64
2022-10-23T15:31:49.292Z,64.93
2022-10-23T15:34:23.514Z,63.66
2022-10-23T15:36:58.623Z,62.88
2022-10-23T15:39:33.897Z,62.38
2022-10-23T15:42:07.179Z,61.70
2022-10-23T15:44:40.631Z,61.31
2022-10-23T15:47:12.308Z,60.66
2022-10-23T15:49:44.799Z,60.30
2022-10-23T15:52:16.491Z,58.37
2022-10-23T15:54:48.311Z,57.97
2022-10-23T15:57:20.469Z,58.98
2022-10-23T15:59:52.263Z,60.20
2022-10-23T16:02:24.262Z,62.96
2022-10-23T16:04:56.056Z,64.48
2022-10-23T16:07:27.785Z,65.11
2022-10-23T16:09:59.886Z,64.51
2022-10-23T16:12:32.276Z,63.85
2022-10-23T16:15:04.015Z,62.98
2022-10-23T16:17:35.780Z,62.63
2022-10-23T16:20:09.209Z,61.85
2022-10-23T16:22:44.156Z,61.29
2022-10-23T16:25:16.905Z,61.37
2022-10-23T16:27:48.908Z,61.46
2022-10-23T16:30:22.900Z,61.59
2022-10-23T16:32:54.975Z,60.39
2022-10-23T16:35:26.965Z,60.47
2022-10-23T16:38:06.133Z,60.05
2022-10-23T16:40:37.833Z,58.34
2022-10-23T16:43:28.621Z,57.06
2022-10-23T16:46:13.110Z,58.23
2022-10-23T16:48:45.660Z,59.66
2022-10-23T16:51:20.260Z,63.99
2022-10-23T16:53:52.824Z,65.59
2022-10-23T16:56:27.934Z,63.26
2022-10-23T16:59:00.417Z,61.19
2022-10-23T17:01:34.115Z,58.29
2022-10-23T17:04:08.802Z,57.41
2022-10-23T17:06:41.307Z,58.42
2022-10-23T17:09:13.186Z,59.76
2022-10-23T17:11:48.011Z,63.90
2022-10-23T17:14:25.037Z,65.56
2022-10-23T17:16:58.236Z,63.50
2022-10-23T17:19:44.718Z,61.80
2022-10-23T17:22:17.784Z,60.45
2022-10-23T17:24:51.624Z,57.75
2022-10-23T17:27:25.697Z,56.77
2022-10-23T17:29:58.341Z,57.96
2022-10-23T17:32:30.134Z,59.26
2022-10-23T17:35:01.806Z,60.70
2022-10-23T17:37:33.576Z,64.84
2022-10-23T17:40:07.056Z,66.37
2022-10-23T17:42:39.205Z,64.32
2022-10-23T17:45:12.199Z,62.49
2022-10-23T17:47:44.737Z,61.18
2022-10-23T17:50:16.505Z,60.18
2022-10-23T17:52:48.864Z,57.73
2022-10-23T17:55:21.373Z,56.99
2022-10-23T17:57:53.187Z,58.20
2022-10-23T18:00:25.210Z,59.77
2022-10-23T18:02:57.139Z,63.18
2022-10-23T18:05:28.952Z,65.48
2022-10-23T18:08:01.017Z,64.42
2022-10-23T18:10:35.994Z,63.22
2022-10-23T18:13:07.710Z,62.49
2022-10-23T18:15:39.770Z,61.78
2022-10-23T18:18:13.977Z,62.31
2022-10-23T18:20:47.802Z,62.11
2022-10-23T18:23:20.201Z,62.36
2022-10-23T18:25:51.905Z,62.45
2022-10-23T18:28:23.754Z,62.52
2022-10-23T18:30:56.970Z,62.57
2022-10-23T18:33:29.220Z,62.46
2022-10-23T18:36:01.165Z,62.37
2022-10-23T18:38:32.922Z,62.23
2022-10-23T18:41:04.641Z,62.13
2022-10-23T18:43:43.740Z,62.12
2022-10-23T18:46:16.607Z,61.82
2022-10-23T18:48:50.730Z,62.09
2022-10-23T18:51:25.021Z,62.46
2022-10-23T18:53:57.656Z,62.76
2022-10-23T18:56:30.193Z,62.68
2022-10-23T18:59:04.058Z,62.38
2022-10-23T19:01:36.602Z,62.33
2022-10-23T19:04:11.701Z,62.41
2022-10-23T19:06:43.958Z,62.64
2022-10-23T19:09:17.237Z,62.39
2022-10-23T19:11:49.045Z,62.22
2022-10-23T19:14:20.836Z,62.39
2022-10-23T19:17:01.775Z,62.64
2022-10-23T19:19:37.286Z,62.21
2022-10-23T19:22:12.154Z,61.95
2022-10-23T19:24:50.168Z,61.83
2022-10-23T19:27:22.074Z,62.54
2022-10-23T19:29:55.637Z,62.34
2022-10-23T19:32:27.545Z,62.22
2022-10-23T19:35:01.259Z,62.63
2022-10-23T19:37:33.224Z,63.06
2022-10-23T19:40:06.727Z,63.00
2022-10-23T19:42:40.045Z,62.67
2022-10-23T19:45:15.950Z,62.57
2022-10-23T19:47:47.986Z,62.78
2022-10-23T19:50:20.883Z,62.78
2022-10-23T19:52:52.685Z,62.43
2022-10-23T19:55:24.416Z,62.40
2022-10-23T19:57:56.505Z,62.49
2022-10-23T20:00:29.036Z,62.33
2022-10-23T20:03:00.696Z,62.21
2022-10-23T20:05:32.674Z,62.43
2022-10-23T20:08:04.409Z,62.46
2022-10-23T20:10:41.320Z,62.80
2022-10-23T20:13:19.714Z,63.26
2022-10-23T20:15:52.059Z,63.07
2022-10-23T20:18:23.902Z,63.02
2022-10-23T20:20:55.906Z,63.01
2022-10-23T20:23:28.308Z,62.87
2022-10-23T20:26:08.532Z,62.92
2022-10-23T20:28:40.560Z,63.91
2022-10-23T20:31:13.081Z,63.73
2022-10-23T20:33:45.080Z,63.20
2022-10-23T20:36:29.950Z,62.68
2022-10-23T20:39:05.745Z,62.19
2022-10-23T20:41:37.977Z,62.07
2022-10-23T20:44:12.445Z,61.90
2022-10-23T20:46:44.628Z,61.78
2022-10-23T20:49:16.673Z,61.25
2022-10-23T20:51:54.841Z,61.24
2022-10-23T20:54:28.956Z,61.08
2022-10-23T20:57:00.939Z,60.84
2022-10-23T20:59:34.152Z,60.80
2022-10-23T21:02:06.083Z,60.61
2022-10-23T21:04:37.919Z,60.38
2022-10-23T21:07:12.155Z,60.34
2022-10-23T21:09:43.898Z,60.19
2022-10-23T21:12:15.661Z,59.99
2022-10-23T21:14:47.351Z,60.45
2022-10-23T21:17:19.069Z,60.26
2022-10-23T21:19:51.144Z,60.24
2022-10-23T21:22:22.825Z,60.32
2022-10-23T21:24:56.205Z,60.47
2022-10-23T21:27:28.211Z,60.39
2022-10-23T21:29:59.894Z,60.51
2022-10-23T21:32:31.600Z,60.46
2022-10-23T21:35:03.448Z,60.16
2022-10-23T21:37:35.185Z,60.16
2022-10-23T21:40:08.563Z,60.71
2022-10-23T21:42:40.283Z,60.81
2022-10-23T21:45:12.749Z,61.26
2022-10-23T21:47:44.535Z,61.69
2022-10-23T21:50:16.643Z,60.89
2022-10-23T21:52:53.144Z,61.21
2022-10-23T21:55:28.100Z,61.99
2022-10-23T21:57:59.763Z,61.74
2022-10-23T22:00:31.841Z,62.68
2022-10-23T22:03:03.568Z,62.99
2022-10-23T22:05:35.234Z,61.79
2022-10-23T22:08:07.547Z,61.59
2022-10-23T22:10:39.310Z,61.86
2022-10-23T22:13:10.986Z,61.75
2022-10-23T22:18:19.753Z,62.14
2022-10-23T22:20:51.421Z,61.56
2022-10-23T22:23:23.087Z,62.65
2022-10-23T22:25:54.762Z,63.09
2022-10-23T22:28:26.792Z,62.76
2022-10-23T22:30:58.605Z,62.60
2022-10-23T22:33:31.952Z,62.42
2022-10-23T22:36:04.923Z,62.46
2022-10-23T22:38:36.912Z,63.10
2022-10-23T22:41:09.645Z,63.71
2022-10-23T22:43:41.620Z,63.39
2022-10-23T22:46:15.040Z,63.25
2022-10-23T22:48:47.589Z,63.00
2022-10-23T22:51:21.420Z,63.35
2022-10-23T22:53:53.130Z,63.47
2022-10-23T22:56:26.823Z,63.62
2022-10-23T22:58:59.144Z,63.78
2022-10-23T23:01:34.336Z,63.68
2022-10-23T23:04:19.865Z,63.53
2022-10-23T23:06:57.943Z,63.32
2022-10-23T23:09:29.640Z,63.24
2022-10-23T23:12:01.260Z,63.25
2022-10-23T23:14:32.993Z,63.49
2022-10-23T23:17:06.200Z,63.73
2022-10-23T23:19:37.961Z,63.98
2022-10-23T23:22:09.734Z,63.96
2022-10-23T23:24:41.411Z,64.16
2022-10-23T23:27:13.080Z,64.19
2022-10-23T23:29:44.724Z,64.02
2022-10-23T23:32:16.400Z,63.94
2022-10-23T23:34:48.045Z,63.98
2022-10-23T23:37:19.734Z,63.99
2022-10-23T23:39:51.390Z,63.99
2022-10-23T23:42:23.054Z,64.09
2022-10-23T23:45:10.016Z,64.64
2022-10-23T23:47:45.341Z,64.67
2022-10-23T23:50:17.928Z,64.81
2022-10-23T23:52:49.756Z,64.97
2022-10-23T23:55:21.429Z,64.87
2022-10-23T23:57:53.182Z,64.79
